sensor_id;sensor_type;location;lat;lon;timestamp;P1;durP1;ratioP1;P2;durP2;ratioP2
44764;SDS011;30484;52.382;5.260;2023-07-31T00:00:27;2.45;;;1.33;;
44764;SDS011;30484;52.382;5.260;2023-07-31T00:02:56;3.30;;;1.40;;
44764;SDS011;30484;52.382;5.260;2023-07-31T00:05:26;3.95;;;1.45;;
44764;SDS011;30484;52.382;5.260;2023-07-31T00:07:54;4.90;;;1.70;;
44764;SDS011;30484;52.382;5.260;2023-07-31T00:10:22;2.05;;;1.45;;
44764;SDS011;30484;52.382;5.260;2023-07-31T00:12:51;7.25;;;2.22;;
44764;SDS011;30484;52.382;5.260;2023-07-31T00:15:19;5.40;;;1.70;;
44764;SDS011;30484;52.382;5.260;2023-07-31T00:17:47;7.63;;;2.13;;
44764;SDS011;30484;52.382;5.260;2023-07-31T00:20:16;10.00;;;2.58;;
44764;SDS011;30484;52.382;5.260;2023-07-31T00:22:45;9.80;;;3.05;;
44764;SDS011;30484;52.382;5.260;2023-07-31T00:25:14;7.22;;;2.40;;
44764;SDS011;30484;52.382;5.260;2023-07-31T00:27:42;11.50;;;3.17;;
44764;SDS011;30484;52.382;5.260;2023-07-31T00:30:12;14.85;;;3.22;;
44764;SDS011;30484;52.382;5.260;2023-07-31T00:32:41;19.77;;;4.03;;
44764;SDS011;30484;52.382;5.260;2023-07-31T00:35:09;14.80;;;4.10;;
44764;SDS011;30484;52.382;5.260;2023-07-31T00:37:37;12.10;;;3.72;;
44764;SDS011;30484;52.382;5.260;2023-07-31T00:40:08;13.27;;;4.32;;
44764;SDS011;30484;52.382;5.260;2023-07-31T00:42:37;20.08;;;3.67;;
44764;SDS011;30484;52.382;5.260;2023-07-31T00:45:05;21.15;;;4.10;;
44764;SDS011;30484;52.382;5.260;2023-07-31T00:47:34;19.73;;;4.00;;
44764;SDS011;30484;52.382;5.260;2023-07-31T00:50:03;22.90;;;4.60;;
44764;SDS011;30484;52.382;5.260;2023-07-31T00:52:35;20.50;;;4.03;;
44764;SDS011;30484;52.382;5.260;2023-07-31T00:55:04;19.50;;;4.05;;
44764;SDS011;30484;52.382;5.260;2023-07-31T00:57:35;24.48;;;4.82;;
44764;SDS011;30484;52.382;5.260;2023-07-31T01:00:06;16.17;;;4.10;;
44764;SDS011;30484;52.382;5.260;2023-07-31T01:02:36;12.52;;;4.07;;
44764;SDS011;30484;52.382;5.260;2023-07-31T01:05:05;18.35;;;4.43;;
44764;SDS011;30484;52.382;5.260;2023-07-31T01:07:35;15.13;;;3.97;;
44764;SDS011;30484;52.382;5.260;2023-07-31T01:10:18;14.27;;;4.35;;
44764;SDS011;30484;52.382;5.260;2023-07-31T01:12:55;21.27;;;3.95;;
44764;SDS011;30484;52.382;5.260;2023-07-31T01:15:25;16.17;;;4.20;;
44764;SDS011;30484;52.382;5.260;2023-07-31T01:17:54;13.52;;;4.35;;
44764;SDS011;30484;52.382;5.260;2023-07-31T01:20:23;11.60;;;4.07;;
44764;SDS011;30484;52.382;5.260;2023-07-31T01:26:16;15.98;;;4.28;;
44764;SDS011;30484;52.382;5.260;2023-07-31T01:28:50;23.33;;;5.30;;
44764;SDS011;30484;52.382;5.260;2023-07-31T01:31:28;19.65;;;4.88;;
44764;SDS011;30484;52.382;5.260;2023-07-31T01:33:59;29.48;;;5.70;;
44764;SDS011;30484;52.382;5.260;2023-07-31T01:36:30;23.05;;;5.25;;
44764;SDS011;30484;52.382;5.260;2023-07-31T01:38:58;25.08;;;6.18;;
44764;SDS011;30484;52.382;5.260;2023-07-31T01:41:29;24.25;;;5.63;;
44764;SDS011;30484;52.382;5.260;2023-07-31T01:43:57;27.13;;;5.75;;
44764;SDS011;30484;52.382;5.260;2023-07-31T01:46:26;26.20;;;5.90;;
44764;SDS011;30484;52.382;5.260;2023-07-31T01:48:54;30.38;;;5.88;;
44764;SDS011;30484;52.382;5.260;2023-07-31T01:51:23;26.63;;;6.05;;
44764;SDS011;30484;52.382;5.260;2023-07-31T01:53:51;22.75;;;6.38;;
44764;SDS011;30484;52.382;5.260;2023-07-31T01:56:20;25.17;;;6.13;;
44764;SDS011;30484;52.382;5.260;2023-07-31T01:58:50;24.92;;;6.75;;
44764;SDS011;30484;52.382;5.260;2023-07-31T02:01:18;30.15;;;6.80;;
44764;SDS011;30484;52.382;5.260;2023-07-31T02:03:47;27.30;;;7.15;;
44764;SDS011;30484;52.382;5.260;2023-07-31T02:06:15;33.40;;;7.82;;
44764;SDS011;30484;52.382;5.260;2023-07-31T02:08:44;29.75;;;7.60;;
44764;SDS011;30484;52.382;5.260;2023-07-31T02:11:12;28.90;;;7.47;;
44764;SDS011;30484;52.382;5.260;2023-07-31T02:13:41;33.33;;;7.53;;
44764;SDS011;30484;52.382;5.260;2023-07-31T02:16:11;28.73;;;7.63;;
44764;SDS011;30484;52.382;5.260;2023-07-31T02:18:39;34.72;;;8.57;;
44764;SDS011;30484;52.382;5.260;2023-07-31T02:21:07;30.77;;;8.02;;
44764;SDS011;30484;52.382;5.260;2023-07-31T02:23:36;36.28;;;8.55;;
44764;SDS011;30484;52.382;5.260;2023-07-31T02:26:04;36.83;;;8.35;;
44764;SDS011;30484;52.382;5.260;2023-07-31T02:28:33;36.45;;;8.88;;
44764;SDS011;30484;52.382;5.260;2023-07-31T02:31:01;45.00;;;8.95;;
44764;SDS011;30484;52.382;5.260;2023-07-31T02:33:31;49.38;;;9.90;;
44764;SDS011;30484;52.382;5.260;2023-07-31T02:36:00;43.85;;;9.63;;
44764;SDS011;30484;52.382;5.260;2023-07-31T02:38:28;37.03;;;8.25;;
44764;SDS011;30484;52.382;5.260;2023-07-31T02:40:57;43.42;;;9.55;;
44764;SDS011;30484;52.382;5.260;2023-07-31T02:43:25;41.17;;;9.23;;
44764;SDS011;30484;52.382;5.260;2023-07-31T02:45:54;44.00;;;10.38;;
44764;SDS011;30484;52.382;5.260;2023-07-31T02:48:22;49.60;;;10.27;;
44764;SDS011;30484;52.382;5.260;2023-07-31T02:50:53;40.85;;;10.13;;
44764;SDS011;30484;52.382;5.260;2023-07-31T02:53:21;48.60;;;10.75;;
44764;SDS011;30484;52.382;5.260;2023-07-31T02:55:49;37.65;;;9.27;;
44764;SDS011;30484;52.382;5.260;2023-07-31T02:58:18;40.60;;;9.68;;
44764;SDS011;30484;52.382;5.260;2023-07-31T03:00:46;43.70;;;10.10;;
44764;SDS011;30484;52.382;5.260;2023-07-31T03:03:14;45.10;;;9.60;;
44764;SDS011;30484;52.382;5.260;2023-07-31T03:05:43;43.83;;;9.60;;
44764;SDS011;30484;52.382;5.260;2023-07-31T03:08:12;43.05;;;10.02;;
44764;SDS011;30484;52.382;5.260;2023-07-31T03:10:41;44.63;;;9.40;;
44764;SDS011;30484;52.382;5.260;2023-07-31T03:13:09;49.40;;;9.88;;
44764;SDS011;30484;52.382;5.260;2023-07-31T03:15:38;44.13;;;10.27;;
44764;SDS011;30484;52.382;5.260;2023-07-31T03:18:09;46.90;;;10.63;;
44764;SDS011;30484;52.382;5.260;2023-07-31T03:20:41;44.08;;;9.95;;
44764;SDS011;30484;52.382;5.260;2023-07-31T03:23:10;50.58;;;11.00;;
44764;SDS011;30484;52.382;5.260;2023-07-31T03:25:41;44.55;;;10.85;;
44764;SDS011;30484;52.382;5.260;2023-07-31T03:28:24;46.67;;;10.55;;
44764;SDS011;30484;52.382;5.260;2023-07-31T03:30:53;51.40;;;10.80;;
44764;SDS011;30484;52.382;5.260;2023-07-31T03:33:21;47.30;;;9.68;;
44764;SDS011;30484;52.382;5.260;2023-07-31T03:35:50;34.72;;;9.52;;
44764;SDS011;30484;52.382;5.260;2023-07-31T03:38:20;41.92;;;9.55;;
44764;SDS011;30484;52.382;5.260;2023-07-31T03:40:48;47.90;;;9.80;;
44764;SDS011;30484;52.382;5.260;2023-07-31T03:43:17;43.05;;;9.38;;
44764;SDS011;30484;52.382;5.260;2023-07-31T03:45:45;51.45;;;10.38;;
44764;SDS011;30484;52.382;5.260;2023-07-31T03:48:14;50.63;;;10.00;;
44764;SDS011;30484;52.382;5.260;2023-07-31T03:50:42;50.33;;;9.93;;
44764;SDS011;30484;52.382;5.260;2023-07-31T03:53:11;49.28;;;10.02;;
44764;SDS011;30484;52.382;5.260;2023-07-31T03:55:41;57.85;;;10.55;;
44764;SDS011;30484;52.382;5.260;2023-07-31T03:58:09;49.00;;;10.30;;
44764;SDS011;30484;52.382;5.260;2023-07-31T04:00:39;46.03;;;10.60;;
44764;SDS011;30484;52.382;5.260;2023-07-31T04:03:08;48.03;;;9.57;;
44764;SDS011;30484;52.382;5.260;2023-07-31T04:05:38;49.33;;;10.77;;
44764;SDS011;30484;52.382;5.260;2023-07-31T04:08:14;45.60;;;10.07;;
44764;SDS011;30484;52.382;5.260;2023-07-31T04:10:44;49.55;;;10.25;;
44764;SDS011;30484;52.382;5.260;2023-07-31T04:13:13;46.60;;;10.30;;
44764;SDS011;30484;52.382;5.260;2023-07-31T04:15:42;45.92;;;10.25;;
44764;SDS011;30484;52.382;5.260;2023-07-31T04:18:17;45.67;;;10.90;;
44764;SDS011;30484;52.382;5.260;2023-07-31T04:20:46;44.65;;;10.07;;
44764;SDS011;30484;52.382;5.260;2023-07-31T04:23:14;55.47;;;10.93;;
44764;SDS011;30484;52.382;5.260;2023-07-31T04:25:44;50.70;;;10.75;;
44764;SDS011;30484;52.382;5.260;2023-07-31T04:28:12;48.33;;;10.32;;
44764;SDS011;30484;52.382;5.260;2023-07-31T04:30:41;52.67;;;10.20;;
44764;SDS011;30484;52.382;5.260;2023-07-31T04:33:09;51.30;;;10.18;;
44764;SDS011;30484;52.382;5.260;2023-07-31T04:35:38;51.65;;;10.77;;
44764;SDS011;30484;52.382;5.260;2023-07-31T04:38:09;37.50;;;9.45;;
44764;SDS011;30484;52.382;5.260;2023-07-31T04:40:37;47.42;;;10.45;;
44764;SDS011;30484;52.382;5.260;2023-07-31T04:43:07;46.10;;;10.18;;
44764;SDS011;30484;52.382;5.260;2023-07-31T04:45:36;45.42;;;10.30;;
44764;SDS011;30484;52.382;5.260;2023-07-31T04:48:04;46.10;;;9.52;;
44764;SDS011;30484;52.382;5.260;2023-07-31T04:50:33;36.78;;;10.77;;
44764;SDS011;30484;52.382;5.260;2023-07-31T04:53:01;43.10;;;10.00;;
44764;SDS011;30484;52.382;5.260;2023-07-31T04:55:30;53.40;;;10.75;;
44764;SDS011;30484;52.382;5.260;2023-07-31T04:57:59;52.45;;;10.85;;
44764;SDS011;30484;52.382;5.260;2023-07-31T05:00:29;49.28;;;10.30;;
44764;SDS011;30484;52.382;5.260;2023-07-31T05:02:57;42.28;;;11.18;;
44764;SDS011;30484;52.382;5.260;2023-07-31T05:05:26;43.08;;;10.30;;
44764;SDS011;30484;52.382;5.260;2023-07-31T05:07:55;34.53;;;9.68;;
44764;SDS011;30484;52.382;5.260;2023-07-31T05:10:24;42.55;;;9.50;;
44764;SDS011;30484;52.382;5.260;2023-07-31T05:12:52;40.17;;;8.23;;
44764;SDS011;30484;52.382;5.260;2023-07-31T05:15:21;34.88;;;8.57;;
44764;SDS011;30484;52.382;5.260;2023-07-31T05:17:50;38.33;;;8.85;;
44764;SDS011;30484;52.382;5.260;2023-07-31T05:20:19;25.73;;;7.15;;
44764;SDS011;30484;52.382;5.260;2023-07-31T05:22:48;23.67;;;6.95;;
44764;SDS011;30484;52.382;5.260;2023-07-31T05:25:18;27.80;;;7.30;;
44764;SDS011;30484;52.382;5.260;2023-07-31T05:27:47;27.50;;;7.32;;
44764;SDS011;30484;52.382;5.260;2023-07-31T05:30:15;12.63;;;5.22;;
44764;SDS011;30484;52.382;5.260;2023-07-31T05:32:47;16.83;;;5.38;;
44764;SDS011;30484;52.382;5.260;2023-07-31T05:35:17;14.73;;;5.40;;
44764;SDS011;30484;52.382;5.260;2023-07-31T05:37:45;15.98;;;5.18;;
44764;SDS011;30484;52.382;5.260;2023-07-31T05:40:14;13.43;;;4.63;;
44764;SDS011;30484;52.382;5.260;2023-07-31T05:42:43;9.45;;;4.20;;
44764;SDS011;30484;52.382;5.260;2023-07-31T05:45:11;9.25;;;4.40;;
44764;SDS011;30484;52.382;5.260;2023-07-31T05:47:40;15.95;;;4.90;;
44764;SDS011;30484;52.382;5.260;2023-07-31T05:50:09;11.77;;;4.03;;
44764;SDS011;30484;52.382;5.260;2023-07-31T05:52:39;11.75;;;3.92;;
44764;SDS011;30484;52.382;5.260;2023-07-31T05:55:07;11.23;;;4.43;;
44764;SDS011;30484;52.382;5.260;2023-07-31T05:57:36;9.32;;;4.57;;
44764;SDS011;30484;52.382;5.260;2023-07-31T06:00:05;11.40;;;3.85;;
44764;SDS011;30484;52.382;5.260;2023-07-31T06:02:35;10.15;;;4.90;;
44764;SDS011;30484;52.382;5.260;2023-07-31T06:05:04;7.80;;;3.65;;
44764;SDS011;30484;52.382;5.260;2023-07-31T06:07:33;8.88;;;4.00;;
44764;SDS011;30484;52.382;5.260;2023-07-31T06:10:04;8.07;;;3.58;;
44764;SDS011;30484;52.382;5.260;2023-07-31T06:12:34;5.90;;;3.53;;
44764;SDS011;30484;52.382;5.260;2023-07-31T06:15:03;6.43;;;3.05;;
44764;SDS011;30484;52.382;5.260;2023-07-31T06:17:33;8.68;;;3.67;;
44764;SDS011;30484;52.382;5.260;2023-07-31T06:20:01;9.07;;;3.72;;
44764;SDS011;30484;52.382;5.260;2023-07-31T06:22:31;8.05;;;3.42;;
44764;SDS011;30484;52.382;5.260;2023-07-31T06:24:59;7.57;;;3.30;;
44764;SDS011;30484;52.382;5.260;2023-07-31T06:27:29;6.32;;;3.28;;
44764;SDS011;30484;52.382;5.260;2023-07-31T06:29:58;9.85;;;3.40;;
44764;SDS011;30484;52.382;5.260;2023-07-31T06:32:26;8.23;;;3.45;;
44764;SDS011;30484;52.382;5.260;2023-07-31T06:34:55;9.02;;;3.45;;
44764;SDS011;30484;52.382;5.260;2023-07-31T06:37:23;9.48;;;3.35;;
44764;SDS011;30484;52.382;5.260;2023-07-31T06:39:52;9.65;;;3.78;;
44764;SDS011;30484;52.382;5.260;2023-07-31T06:42:20;10.10;;;3.63;;
44764;SDS011;30484;52.382;5.260;2023-07-31T06:44:50;8.30;;;3.42;;
44764;SDS011;30484;52.382;5.260;2023-07-31T06:47:18;7.15;;;3.20;;
44764;SDS011;30484;52.382;5.260;2023-07-31T06:49:47;7.68;;;3.05;;
44764;SDS011;30484;52.382;5.260;2023-07-31T06:52:15;6.82;;;3.25;;
44764;SDS011;30484;52.382;5.260;2023-07-31T06:54:44;7.30;;;3.08;;
44764;SDS011;30484;52.382;5.260;2023-07-31T06:57:28;7.10;;;3.08;;
44764;SDS011;30484;52.382;5.260;2023-07-31T06:59:57;5.28;;;2.47;;
44764;SDS011;30484;52.382;5.260;2023-07-31T07:02:26;6.20;;;2.70;;
44764;SDS011;30484;52.382;5.260;2023-07-31T07:04:54;6.18;;;3.03;;
44764;SDS011;30484;52.382;5.260;2023-07-31T07:07:23;4.32;;;2.28;;
44764;SDS011;30484;52.382;5.260;2023-07-31T07:09:51;5.57;;;2.50;;
44764;SDS011;30484;52.382;5.260;2023-07-31T07:12:19;6.05;;;2.10;;
44764;SDS011;30484;52.382;5.260;2023-07-31T07:14:48;3.97;;;2.30;;
44764;SDS011;30484;52.382;5.260;2023-07-31T07:17:18;4.70;;;2.40;;
44764;SDS011;30484;52.382;5.260;2023-07-31T07:19:47;3.88;;;2.50;;
44764;SDS011;30484;52.382;5.260;2023-07-31T07:22:16;4.93;;;2.60;;
44764;SDS011;30484;52.382;5.260;2023-07-31T07:24:44;7.85;;;2.33;;
44764;SDS011;30484;52.382;5.260;2023-07-31T07:27:13;3.53;;;1.98;;
44764;SDS011;30484;52.382;5.260;2023-07-31T07:29:42;3.85;;;2.45;;
44764;SDS011;30484;52.382;5.260;2023-07-31T07:32:10;3.95;;;2.22;;
44764;SDS011;30484;52.382;5.260;2023-07-31T07:34:40;4.50;;;2.35;;
44764;SDS011;30484;52.382;5.260;2023-07-31T07:37:09;5.97;;;3.60;;
44764;SDS011;30484;52.382;5.260;2023-07-31T07:39:37;3.70;;;2.10;;
44764;SDS011;30484;52.382;5.260;2023-07-31T07:42:06;2.45;;;1.60;;
44764;SDS011;30484;52.382;5.260;2023-07-31T07:44:34;2.50;;;1.83;;
44764;SDS011;30484;52.382;5.260;2023-07-31T07:47:03;3.55;;;1.80;;
44764;SDS011;30484;52.382;5.260;2023-07-31T07:49:32;2.55;;;1.80;;
44764;SDS011;30484;52.382;5.260;2023-07-31T07:52:03;3.35;;;1.83;;
44764;SDS011;30484;52.382;5.260;2023-07-31T07:54:32;2.65;;;1.50;;
44764;SDS011;30484;52.382;5.260;2023-07-31T07:57:00;3.53;;;2.03;;
44764;SDS011;30484;52.382;5.260;2023-07-31T07:59:29;3.35;;;1.65;;
44764;SDS011;30484;52.382;5.260;2023-07-31T08:01:57;2.35;;;1.40;;
44764;SDS011;30484;52.382;5.260;2023-07-31T08:04:26;1.83;;;1.10;;
44764;SDS011;30484;52.382;5.260;2023-07-31T08:06:55;2.60;;;1.40;;
44764;SDS011;30484;52.382;5.260;2023-07-31T08:09:25;1.50;;;1.08;;
44764;SDS011;30484;52.382;5.260;2023-07-31T08:11:53;2.00;;;1.10;;
44764;SDS011;30484;52.382;5.260;2023-07-31T08:14:24;2.47;;;1.00;;
44764;SDS011;30484;52.382;5.260;2023-07-31T08:16:52;1.70;;;1.13;;
44764;SDS011;30484;52.382;5.260;2023-07-31T08:19:21;2.35;;;1.00;;
44764;SDS011;30484;52.382;5.260;2023-07-31T08:21:51;2.55;;;1.30;;
44764;SDS011;30484;52.382;5.260;2023-07-31T08:24:24;1.05;;;0.95;;
44764;SDS011;30484;52.382;5.260;2023-07-31T08:26:53;1.38;;;0.90;;
44764;SDS011;30484;52.382;5.260;2023-07-31T08:29:22;1.73;;;1.38;;
44764;SDS011;30484;52.382;5.260;2023-07-31T08:31:51;1.33;;;1.00;;
44764;SDS011;30484;52.382;5.260;2023-07-31T08:34:19;2.03;;;0.93;;
44764;SDS011;30484;52.382;5.260;2023-07-31T08:36:48;0.98;;;0.88;;
44764;SDS011;30484;52.382;5.260;2023-07-31T08:39:17;1.88;;;1.02;;
44764;SDS011;30484;52.382;5.260;2023-07-31T08:41:46;1.55;;;0.98;;
44764;SDS011;30484;52.382;5.260;2023-07-31T08:44:15;1.17;;;0.80;;
44764;SDS011;30484;52.382;5.260;2023-07-31T08:46:45;15.45;;;1.05;;
44764;SDS011;30484;52.382;5.260;2023-07-31T08:49:15;1.25;;;0.70;;
44764;SDS011;30484;52.382;5.260;2023-07-31T08:51:45;2.30;;;0.93;;
44764;SDS011;30484;52.382;5.260;2023-07-31T08:54:17;2.63;;;0.88;;
44764;SDS011;30484;52.382;5.260;2023-07-31T08:56:46;1.40;;;0.80;;
44764;SDS011;30484;52.382;5.260;2023-07-31T08:59:16;1.00;;;0.70;;
44764;SDS011;30484;52.382;5.260;2023-07-31T09:01:47;1.45;;;0.88;;
44764;SDS011;30484;52.382;5.260;2023-07-31T09:04:20;3.80;;;0.90;;
44764;SDS011;30484;52.382;5.260;2023-07-31T09:06:50;1.33;;;0.70;;
44764;SDS011;30484;52.382;5.260;2023-07-31T09:09:24;2.87;;;2.10;;
44764;SDS011;30484;52.382;5.260;2023-07-31T09:11:54;2.28;;;1.63;;
44764;SDS011;30484;52.382;5.260;2023-07-31T09:14:26;3.03;;;1.60;;
44764;SDS011;30484;52.382;5.260;2023-07-31T09:16:54;1.20;;;0.82;;
44764;SDS011;30484;52.382;5.260;2023-07-31T09:19:25;1.42;;;0.80;;
44764;SDS011;30484;52.382;5.260;2023-07-31T09:21:54;2.78;;;0.90;;
44764;SDS011;30484;52.382;5.260;2023-07-31T09:24:26;1.33;;;0.60;;
44764;SDS011;30484;52.382;5.260;2023-07-31T09:26:58;1.17;;;0.70;;
44764;SDS011;30484;52.382;5.260;2023-07-31T09:29:28;1.20;;;0.80;;
44764;SDS011;30484;52.382;5.260;2023-07-31T09:31:57;1.30;;;0.52;;
44764;SDS011;30484;52.382;5.260;2023-07-31T09:34:29;0.80;;;0.50;;
44764;SDS011;30484;52.382;5.260;2023-07-31T09:37:04;1.08;;;0.70;;
44764;SDS011;30484;52.382;5.260;2023-07-31T09:39:33;1.15;;;0.60;;
44764;SDS011;30484;52.382;5.260;2023-07-31T09:42:25;0.90;;;0.70;;
44764;SDS011;30484;52.382;5.260;2023-07-31T09:44:54;2.67;;;0.88;;
44764;SDS011;30484;52.382;5.260;2023-07-31T09:47:36;4.18;;;1.50;;
44764;SDS011;30484;52.382;5.260;2023-07-31T09:50:07;6.25;;;1.60;;
44764;SDS011;30484;52.382;5.260;2023-07-31T09:52:38;6.78;;;1.80;;
44764;SDS011;30484;52.382;5.260;2023-07-31T09:55:06;9.35;;;2.53;;
44764;SDS011;30484;52.382;5.260;2023-07-31T09:57:40;10.20;;;2.17;;
44764;SDS011;30484;52.382;5.260;2023-07-31T10:00:12;9.23;;;2.35;;
44764;SDS011;30484;52.382;5.260;2023-07-31T10:02:44;8.80;;;2.13;;
44764;SDS011;30484;52.382;5.260;2023-07-31T10:05:14;9.82;;;2.35;;
44764;SDS011;30484;52.382;5.260;2023-07-31T10:07:45;5.57;;;1.73;;
44764;SDS011;30484;52.382;5.260;2023-07-31T10:10:19;4.35;;;1.50;;
44764;SDS011;30484;52.382;5.260;2023-07-31T10:12:50;8.23;;;1.90;;
44764;SDS011;30484;52.382;5.260;2023-07-31T10:15:20;9.82;;;2.28;;
44764;SDS011;30484;52.382;5.260;2023-07-31T10:17:49;8.52;;;2.00;;
44764;SDS011;30484;52.382;5.260;2023-07-31T10:20:19;12.98;;;2.53;;
44764;SDS011;30484;52.382;5.260;2023-07-31T10:22:48;6.93;;;2.00;;
44764;SDS011;30484;52.382;5.260;2023-07-31T10:25:18;12.32;;;2.65;;
44764;SDS011;30484;52.382;5.260;2023-07-31T10:27:50;12.98;;;2.80;;
44764;SDS011;30484;52.382;5.260;2023-07-31T10:30:20;13.13;;;3.33;;
44764;SDS011;30484;52.382;5.260;2023-07-31T10:32:53;11.98;;;2.92;;
44764;SDS011;30484;52.382;5.260;2023-07-31T10:35:22;14.80;;;3.90;;
44764;SDS011;30484;52.382;5.260;2023-07-31T10:37:51;18.42;;;3.97;;
44764;SDS011;30484;52.382;5.260;2023-07-31T10:40:23;16.05;;;3.58;;
44764;SDS011;30484;52.382;5.260;2023-07-31T10:42:55;18.67;;;3.97;;
44764;SDS011;30484;52.382;5.260;2023-07-31T10:45:25;16.73;;;3.95;;
44764;SDS011;30484;52.382;5.260;2023-07-31T10:48:00;16.10;;;3.13;;
44764;SDS011;30484;52.382;5.260;2023-07-31T10:50:30;22.58;;;3.30;;
44764;SDS011;30484;52.382;5.260;2023-07-31T10:53:00;20.02;;;3.33;;
44764;SDS011;30484;52.382;5.260;2023-07-31T10:55:30;14.70;;;3.50;;
44764;SDS011;30484;52.382;5.260;2023-07-31T10:58:08;12.27;;;3.10;;
44764;SDS011;30484;52.382;5.260;2023-07-31T11:00:39;8.68;;;2.47;;
44764;SDS011;30484;52.382;5.260;2023-07-31T11:03:09;10.82;;;2.45;;
44764;SDS011;30484;52.382;5.260;2023-07-31T11:05:44;9.52;;;2.33;;
44764;SDS011;30484;52.382;5.260;2023-07-31T11:08:20;7.70;;;2.42;;
44764;SDS011;30484;52.382;5.260;2023-07-31T11:10:51;7.45;;;2.20;;
44764;SDS011;30484;52.382;5.260;2023-07-31T11:13:40;10.60;;;2.67;;
44764;SDS011;30484;52.382;5.260;2023-07-31T11:16:12;13.77;;;2.97;;
44764;SDS011;30484;52.382;5.260;2023-07-31T11:18:41;15.93;;;2.83;;
44764;SDS011;30484;52.382;5.260;2023-07-31T11:21:12;13.20;;;2.92;;
44764;SDS011;30484;52.382;5.260;2023-07-31T11:23:45;9.95;;;2.60;;
44764;SDS011;30484;52.382;5.260;2023-07-31T11:26:14;13.55;;;2.97;;
44764;SDS011;30484;52.382;5.260;2023-07-31T11:28:46;13.55;;;3.00;;
44764;SDS011;30484;52.382;5.260;2023-07-31T11:31:16;13.45;;;3.10;;
44764;SDS011;30484;52.382;5.260;2023-07-31T11:33:46;11.15;;;3.20;;
44764;SDS011;30484;52.382;5.260;2023-07-31T11:36:14;12.90;;;3.35;;
44764;SDS011;30484;52.382;5.260;2023-07-31T11:38:44;9.82;;;2.88;;
44764;SDS011;30484;52.382;5.260;2023-07-31T11:41:14;12.50;;;3.30;;
44764;SDS011;30484;52.382;5.260;2023-07-31T11:43:47;11.48;;;2.97;;
44764;SDS011;30484;52.382;5.260;2023-07-31T11:46:16;12.15;;;3.05;;
44764;SDS011;30484;52.382;5.260;2023-07-31T11:48:45;14.77;;;3.15;;
44764;SDS011;30484;52.382;5.260;2023-07-31T11:51:19;13.13;;;2.97;;
44764;SDS011;30484;52.382;5.260;2023-07-31T11:53:49;12.43;;;3.50;;
44764;SDS011;30484;52.382;5.260;2023-07-31T11:56:21;12.07;;;2.97;;
44764;SDS011;30484;52.382;5.260;2023-07-31T11:58:53;14.25;;;3.13;;
44764;SDS011;30484;52.382;5.260;2023-07-31T12:01:25;11.60;;;3.38;;
44764;SDS011;30484;52.382;5.260;2023-07-31T12:03:55;11.15;;;3.03;;
44764;SDS011;30484;52.382;5.260;2023-07-31T12:06:32;19.77;;;3.70;;
44764;SDS011;30484;52.382;5.260;2023-07-31T12:09:03;14.15;;;2.97;;
44764;SDS011;30484;52.382;5.260;2023-07-31T12:11:42;9.95;;;3.13;;
44764;SDS011;30484;52.382;5.260;2023-07-31T12:14:20;9.77;;;3.13;;
44764;SDS011;30484;52.382;5.260;2023-07-31T12:16:54;14.23;;;4.60;;
44764;SDS011;30484;52.382;5.260;2023-07-31T12:19:22;13.75;;;3.47;;
44764;SDS011;30484;52.382;5.260;2023-07-31T12:21:54;15.57;;;3.05;;
44764;SDS011;30484;52.382;5.260;2023-07-31T12:24:23;14.70;;;3.55;;
44764;SDS011;30484;52.382;5.260;2023-07-31T12:26:51;13.60;;;3.80;;
44764;SDS011;30484;52.382;5.260;2023-07-31T12:29:22;13.10;;;3.30;;
44764;SDS011;30484;52.382;5.260;2023-07-31T12:31:50;18.05;;;3.67;;
44764;SDS011;30484;52.382;5.260;2023-07-31T12:34:19;10.70;;;3.05;;
44764;SDS011;30484;52.382;5.260;2023-07-31T12:36:48;15.13;;;3.40;;
44764;SDS011;30484;52.382;5.260;2023-07-31T12:39:17;16.75;;;3.28;;
44764;SDS011;30484;52.382;5.260;2023-07-31T12:41:45;13.65;;;2.90;;
44764;SDS011;30484;52.382;5.260;2023-07-31T12:44:13;15.27;;;3.05;;
44764;SDS011;30484;52.382;5.260;2023-07-31T12:46:43;14.60;;;2.97;;
44764;SDS011;30484;52.382;5.260;2023-07-31T12:49:12;12.32;;;3.15;;
44764;SDS011;30484;52.382;5.260;2023-07-31T12:51:40;14.13;;;3.40;;
44764;SDS011;30484;52.382;5.260;2023-07-31T12:54:08;14.45;;;3.03;;
44764;SDS011;30484;52.382;5.260;2023-07-31T12:56:37;10.98;;;3.00;;
44764;SDS011;30484;52.382;5.260;2023-07-31T12:59:05;14.10;;;3.55;;
44764;SDS011;30484;52.382;5.260;2023-07-31T13:01:34;11.60;;;2.95;;
44764;SDS011;30484;52.382;5.260;2023-07-31T13:04:04;10.52;;;2.75;;
44764;SDS011;30484;52.382;5.260;2023-07-31T13:06:34;10.88;;;2.72;;
44764;SDS011;30484;52.382;5.260;2023-07-31T13:09:03;13.43;;;2.83;;
44764;SDS011;30484;52.382;5.260;2023-07-31T13:11:32;11.77;;;2.40;;
44764;SDS011;30484;52.382;5.260;2023-07-31T13:14:00;14.43;;;2.72;;
44764;SDS011;30484;52.382;5.260;2023-07-31T13:16:28;12.07;;;2.63;;
44764;SDS011;30484;52.382;5.260;2023-07-31T13:18:57;11.02;;;3.10;;
44764;SDS011;30484;52.382;5.260;2023-07-31T13:21:30;14.45;;;2.80;;
44764;SDS011;30484;52.382;5.260;2023-07-31T13:24:00;7.65;;;2.30;;
44764;SDS011;30484;52.382;5.260;2023-07-31T13:26:30;11.45;;;2.65;;
44764;SDS011;30484;52.382;5.260;2023-07-31T13:29:00;10.20;;;2.40;;
44764;SDS011;30484;52.382;5.260;2023-07-31T13:31:29;9.38;;;2.53;;
44764;SDS011;30484;52.382;5.260;2023-07-31T13:33:57;9.50;;;3.05;;
44764;SDS011;30484;52.382;5.260;2023-07-31T13:36:26;6.88;;;2.15;;
44764;SDS011;30484;52.382;5.260;2023-07-31T13:38:55;5.90;;;2.00;;
44764;SDS011;30484;52.382;5.260;2023-07-31T13:41:24;8.35;;;2.60;;
44764;SDS011;30484;52.382;5.260;2023-07-31T13:43:55;8.55;;;2.00;;
44764;SDS011;30484;52.382;5.260;2023-07-31T13:46:24;7.50;;;1.95;;
44764;SDS011;30484;52.382;5.260;2023-07-31T13:48:53;8.45;;;2.42;;
44764;SDS011;30484;52.382;5.260;2023-07-31T13:51:22;6.38;;;2.22;;
44764;SDS011;30484;52.382;5.260;2023-07-31T13:53:50;7.28;;;2.50;;
44764;SDS011;30484;52.382;5.260;2023-07-31T13:56:20;8.40;;;2.33;;
44764;SDS011;30484;52.382;5.260;2023-07-31T13:58:49;6.25;;;2.17;;
44764;SDS011;30484;52.382;5.260;2023-07-31T14:01:17;7.97;;;2.58;;
44764;SDS011;30484;52.382;5.260;2023-07-31T14:03:46;10.80;;;2.85;;
44764;SDS011;30484;52.382;5.260;2023-07-31T14:06:15;10.18;;;2.40;;
44764;SDS011;30484;52.382;5.260;2023-07-31T14:08:43;8.60;;;3.00;;
44764;SDS011;30484;52.382;5.260;2023-07-31T14:11:12;9.82;;;3.10;;
44764;SDS011;30484;52.382;5.260;2023-07-31T14:13:42;7.63;;;2.25;;
44764;SDS011;30484;52.382;5.260;2023-07-31T14:16:11;8.00;;;2.60;;
44764;SDS011;30484;52.382;5.260;2023-07-31T14:18:39;7.82;;;2.35;;
44764;SDS011;30484;52.382;5.260;2023-07-31T14:21:08;7.90;;;2.63;;
44764;SDS011;30484;52.382;5.260;2023-07-31T14:23:37;8.50;;;2.45;;
44764;SDS011;30484;52.382;5.260;2023-07-31T14:26:06;5.30;;;1.80;;
44764;SDS011;30484;52.382;5.260;2023-07-31T14:28:34;5.47;;;1.80;;
44764;SDS011;30484;52.382;5.260;2023-07-31T14:31:05;4.90;;;1.70;;
44764;SDS011;30484;52.382;5.260;2023-07-31T14:33:36;4.43;;;1.67;;
44764;SDS011;30484;52.382;5.260;2023-07-31T14:36:05;5.15;;;2.03;;
44764;SDS011;30484;52.382;5.260;2023-07-31T14:38:33;5.15;;;1.73;;
44764;SDS011;30484;52.382;5.260;2023-07-31T14:41:02;5.75;;;1.60;;
44764;SDS011;30484;52.382;5.260;2023-07-31T14:43:31;5.45;;;2.00;;
44764;SDS011;30484;52.382;5.260;2023-07-31T14:45:59;5.32;;;1.98;;
44764;SDS011;30484;52.382;5.260;2023-07-31T14:48:29;4.47;;;2.17;;
44764;SDS011;30484;52.382;5.260;2023-07-31T14:50:58;7.60;;;2.20;;
44764;SDS011;30484;52.382;5.260;2023-07-31T14:53:26;6.78;;;1.85;;
44764;SDS011;30484;52.382;5.260;2023-07-31T14:55:54;5.30;;;1.73;;